Time;durP1;ratioP1;P1;durP2;ratioP2;P2;SDS_P1;SDS_P2;PMS_P1;PMS_P2;Temp;Humidity;BMP_temperature;BMP_pressure;BME280_temperature;BME280_humidity;BME280_pressure;Samples;Min_cycle;Max_cycle;Signal;HPM_P1;HPM_P2
2021/04/28 00:00:34;;;;;;;5.35;2.20;;;;;;;;;;5112515;28;20432;-66
2021/04/28 00:03:01;;;;;;;5.18;2.03;;;;;;;;;;5096606;28;20028;-67
2021/04/28 00:05:27;;;;;;;3.63;2.35;;;;;;;;;;5093099;28;20228;-67
2021/04/28 00:07:54;;;;;;;7.13;2.15;;;;;;;;;;5107386;28;20027;-66
2021/04/28 00:10:21;;;;;;;3.25;2.00;;;;;;;;;;5094865;28;20133;-66
2021/04/28 00:12:47;;;;;;;6.72;2.33;;;;;;;;;;5112156;28;20118;-67
2021/04/28 00:15:15;;;;;;;3.38;2.50;;;;;;;;;;5113278;28;20428;-67
2021/04/28 00:17:41;;;;;;;4.45;2.10;;;;;;;;;;5082333;28;20390;-68
2021/04/28 00:20:11;;;;;;;7.95;2.85;;;;;;;;;;5093003;28;20026;-67
2021/04/28 00:22:37;;;;;;;5.00;2.35;;;;;;;;;;5099914;28;20031;-69
2021/04/28 00:25:07;;;;;;;5.97;2.72;;;;;;;;;;5106942;28;20020;-67
2021/04/28 00:27:33;;;;;;;13.13;2.83;;;;;;;;;;5092688;28;20500;-68
2021/04/28 00:29:59;;;;;;;5.95;2.40;;;;;;;;;;5094817;28;20032;-68
2021/04/28 00:32:25;;;;;;;5.13;3.38;;;;;;;;;;5113079;28;20019;-68
2021/04/28 00:34:51;;;;;;;5.63;2.60;;;;;;;;;;5111095;28;20024;-68
2021/04/28 00:37:17;;;;;;;9.50;3.08;;;;;;;;;;5094444;28;20030;-68
2021/04/28 00:39:43;;;;;;;8.77;3.38;;;;;;;;;;5092615;28;20051;-67
2021/04/28 00:42:09;;;;;;;5.65;2.20;;;;;;;;;;5074496;28;20527;-68
2021/04/28 00:44:35;;;;;;;8.18;2.40;;;;;;;;;;5092434;28;20125;-66
2021/04/28 00:47:02;;;;;;;6.90;3.17;;;;;;;;;;5112829;28;20079;-68
2021/04/28 00:49:28;;;;;;;4.75;2.30;;;;;;;;;;5112009;28;20473;-67
2021/04/28 00:51:54;;;;;;;5.00;2.42;;;;;;;;;;5097896;28;20028;-69
2021/04/28 00:54:21;;;;;;;8.43;2.25;;;;;;;;;;5096083;28;20368;-67
2021/04/28 00:56:47;;;;;;;5.22;3.15;;;;;;;;;;5092625;28;20028;-68
2021/04/28 00:59:13;;;;;;;7.00;2.30;;;;;;;;;;5104674;28;20027;-68
2021/04/28 01:01:39;;;;;;;6.93;2.10;;;;;;;;;;5104688;28;20074;-68
2021/04/28 01:04:06;;;;;;;6.75;2.28;;;;;;;;;;5092442;28;20154;-66
2021/04/28 01:06:33;;;;;;;8.93;2.65;;;;;;;;;;5106529;28;20052;-67
2021/04/28 01:08:59;;;;;;;6.22;3.08;;;;;;;;;;5112791;28;20367;-66
2021/04/28 01:11:26;;;;;;;7.18;2.35;;;;;;;;;;5098838;28;20400;-67
2021/04/28 01:13:52;;;;;;;8.18;2.40;;;;;;;;;;5092192;28;20032;-67
2021/04/28 01:16:18;;;;;;;6.97;2.60;;;;;;;;;;5104170;28;20032;-68
2021/04/28 01:18:44;;;;;;;6.78;2.47;;;;;;;;;;5112502;28;20512;-66
2021/04/28 01:21:10;;;;;;;6.63;2.08;;;;;;;;;;5099952;28;20498;-67
2021/04/28 01:23:36;;;;;;;6.15;2.85;;;;;;;;;;5096729;28;20058;-68
2021/04/28 01:26:02;;;;;;;4.18;2.28;;;;;;;;;;5092462;28;20027;-66
2021/04/28 01:28:29;;;;;;;5.18;2.30;;;;;;;;;;5095589;28;20020;-67
2021/04/28 01:30:57;;;;;;;7.63;2.35;;;;;;;;;;5115604;28;20027;-67
2021/04/28 01:33:27;;;;;;;7.63;2.50;;;;;;;;;;5108636;28;20047;-66
2021/04/28 01:35:54;;;;;;;12.57;3.35;;;;;;;;;;5095876;28;20168;-67
2021/04/28 01:38:21;;;;;;;8.02;2.53;;;;;;;;;;5096181;28;20066;-67
2021/04/28 01:40:48;;;;;;;4.28;2.28;;;;;;;;;;5116254;28;20077;-67
2021/04/28 01:43:14;;;;;;;8.85;3.05;;;;;;;;;;5097479;28;20047;-67
2021/04/28 01:45:41;;;;;;;8.10;3.42;;;;;;;;;;5095757;28;20471;-68
2021/04/28 01:48:07;;;;;;;8.00;3.22;;;;;;;;;;5110600;28;20028;-67
2021/04/28 01:50:33;;;;;;;8.00;3.40;;;;;;;;;;5116254;28;20122;-67
2021/04/28 01:53:00;;;;;;;5.50;2.42;;;;;;;;;;5114097;28;20023;-67
2021/04/28 01:55:26;;;;;;;5.10;2.10;;;;;;;;;;5111857;28;20036;-66
2021/04/28 01:57:53;;;;;;;8.70;2.97;;;;;;;;;;5114984;28;20027;-66
2021/04/28 02:00:21;;;;;;;7.85;2.60;;;;;;;;;;5106609;28;20036;-65
2021/04/28 02:02:48;;;;;;;4.75;2.28;;;;;;;;;;5095219;28;20143;-67
2021/04/28 02:05:14;;;;;;;7.47;2.60;;;;;;;;;;5102062;28;20482;-67
2021/04/28 02:07:42;;;;;;;6.22;2.30;;;;;;;;;;5115659;28;20114;-67
2021/04/28 02:10:08;;;;;;;8.98;2.97;;;;;;;;;;5109465;28;20466;-66
2021/04/28 02:12:35;;;;;;;4.70;3.10;;;;;;;;;;5095102;28;20447;-66
2021/04/28 02:15:02;;;;;;;12.25;2.92;;;;;;;;;;5095485;28;20036;-67
2021/04/28 02:17:29;;;;;;;5.30;2.10;;;;;;;;;;5104421;28;20024;-67
2021/04/28 02:19:55;;;;;;;8.48;2.55;;;;;;;;;;5112110;28;20076;-67
2021/04/28 02:22:21;;;;;;;6.25;2.30;;;;;;;;;;5095067;28;20055;-67
2021/04/28 02:24:47;;;;;;;5.50;2.28;;;;;;;;;;5095776;28;20037;-67
2021/04/28 02:27:13;;;;;;;7.82;2.33;;;;;;;;;;5107829;28;20443;-66
2021/04/28 02:29:40;;;;;;;4.93;2.38;;;;;;;;;;5115019;28;20099;-67
2021/04/28 02:32:06;;;;;;;8.25;3.22;;;;;;;;;;5098255;28;20032;-67
2021/04/28 02:34:32;;;;;;;8.02;2.65;;;;;;;;;;5094839;28;20392;-68
2021/04/28 02:36:59;;;;;;;8.77;2.50;;;;;;;;;;5094816;28;20031;-67
2021/04/28 02:39:29;;;;;;;9.25;3.80;;;;;;;;;;5094193;28;20016;-68
2021/04/28 02:41:56;;;;;;;6.75;2.70;;;;;;;;;;5112238;28;20020;-66
2021/04/28 02:44:24;;;;;;;7.45;2.38;;;;;;;;;;5115008;28;20420;-67
2021/04/28 02:46:52;;;;;;;4.70;2.47;;;;;;;;;;5109629;28;20027;-67
2021/04/28 02:49:20;;;;;;;5.72;3.13;;;;;;;;;;5114930;28;20039;-67
2021/04/28 02:51:47;;;;;;;4.40;2.42;;;;;;;;;;5099813;28;20035;-67
2021/04/28 02:54:13;;;;;;;8.43;3.05;;;;;;;;;;5105092;28;20027;-67
2021/04/28 02:56:40;;;;;;;3.63;2.42;;;;;;;;;;5113749;28;20023;-66
2021/04/28 02:59:06;;;;;;;4.80;2.67;;;;;;;;;;5108781;28;20020;-66
2021/04/28 03:01:33;;;;;;;5.93;2.60;;;;;;;;;;5094126;28;20024;-67
2021/04/28 03:03:59;;;;;;;6.75;2.60;;;;;;;;;;5094434;28;20024;-67
2021/04/28 03:06:25;;;;;;;9.70;2.70;;;;;;;;;;5094497;28;20023;-66
2021/04/28 03:08:51;;;;;;;10.05;3.72;;;;;;;;;;5094432;28;20248;-68
2021/04/28 03:11:18;;;;;;;9.48;3.13;;;;;;;;;;5094817;28;20044;-67
2021/04/28 03:13:44;;;;;;;6.97;3.00;;;;;;;;;;5114430;28;20030;-67
2021/04/28 03:16:11;;;;;;;7.57;3.28;;;;;;;;;;5112967;28;20130;-66
2021/04/28 03:18:37;;;;;;;13.27;3.33;;;;;;;;;;5111327;28;20096;-66
2021/04/28 03:21:04;;;;;;;9.30;4.43;;;;;;;;;;5114156;28;20022;-66
2021/04/28 03:23:30;;;;;;;8.15;3.05;;;;;;;;;;5113265;28;20019;-67
2021/04/28 03:25:56;;;;;;;5.35;3.05;;;;;;;;;;5113668;28;20023;-67
2021/04/28 03:28:22;;;;;;;9.10;3.10;;;;;;;;;;5108530;28;20031;-67
2021/04/28 03:30:48;;;;;;;9.57;3.30;;;;;;;;;;5105482;28;20031;-66
2021/04/28 03:33:15;;;;;;;4.40;3.25;;;;;;;;;;5114025;28;20026;-67
2021/04/28 03:35:41;;;;;;;8.05;3.10;;;;;;;;;;5103164;28;20474;-67
2021/04/28 03:38:07;;;;;;;8.05;3.55;;;;;;;;;;5093611;28;20057;-67
2021/04/28 03:40:33;;;;;;;5.82;3.13;;;;;;;;;;5097304;28;20024;-67
2021/04/28 03:42:59;;;;;;;8.50;3.20;;;;;;;;;;5097180;28;20474;-68
2021/04/28 03:45:25;;;;;;;4.63;2.97;;;;;;;;;;5107972;28;20077;-67
2021/04/28 03:47:51;;;;;;;6.22;3.65;;;;;;;;;;5093760;28;20038;-68
2021/04/28 03:50:17;;;;;;;5.10;2.97;;;;;;;;;;5093257;28;20036;-67
2021/04/28 03:52:43;;;;;;;6.50;2.75;;;;;;;;;;5093501;28;20367;-66
2021/04/28 03:55:10;;;;;;;11.20;3.55;;;;;;;;;;5112619;28;20447;-67
2021/04/28 03:57:36;;;;;;;7.72;3.03;;;;;;;;;;5097015;28;20020;-67
2021/04/28 04:00:04;;;;;;;6.50;3.90;;;;;;;;;;5093001;28;20479;-67
2021/04/28 04:02:30;;;;;;;6.85;3.65;;;;;;;;;;5107659;28;20024;-66
2021/04/28 04:04:58;;;;;;;7.90;4.57;;;;;;;;;;5112579;28;20027;-67
2021/04/28 04:07:24;;;;;;;7.25;3.58;;;;;;;;;;5099833;28;20531;-66
2021/04/28 04:09:50;;;;;;;12.10;5.28;;;;;;;;;;5093009;28;20081;-67
2021/04/28 04:12:16;;;;;;;10.88;5.45;;;;;;;;;;5095268;28;20402;-66
2021/04/28 04:14:42;;;;;;;8.98;5.78;;;;;;;;;;5092824;28;20028;-67
2021/04/28 04:17:08;;;;;;;10.60;4.70;;;;;;;;;;5091771;28;20126;-67
2021/04/28 04:19:34;;;;;;;9.20;4.45;;;;;;;;;;5092301;28;20028;-67
2021/04/28 04:22:00;;;;;;;10.52;5.40;;;;;;;;;;5093074;28;20092;-67
2021/04/28 04:24:27;;;;;;;13.30;6.00;;;;;;;;;;5103961;28;20099;-68
2021/04/28 04:26:53;;;;;;;11.02;5.40;;;;;;;;;;5092515;28;20089;-68
2021/04/28 04:29:19;;;;;;;12.90;5.75;;;;;;;;;;5098874;28;20032;-67
2021/04/28 04:31:45;;;;;;;12.40;5.13;;;;;;;;;;5096911;28;20109;-67
2021/04/28 04:34:11;;;;;;;10.75;4.70;;;;;;;;;;5108982;28;20098;-68
2021/04/28 04:36:37;;;;;;;12.07;5.40;;;;;;;;;;5109118;28;20486;-67
2021/04/28 04:39:04;;;;;;;11.93;5.40;;;;;;;;;;5105767;28;20077;-65
2021/04/28 04:41:30;;;;;;;8.05;4.90;;;;;;;;;;5100071;28;20355;-66
2021/04/28 04:43:56;;;;;;;13.32;6.00;;;;;;;;;;5096242;28;20091;-67
2021/04/28 04:46:22;;;;;;;10.10;5.40;;;;;;;;;;5092729;28;20028;-66
2021/04/28 04:48:48;;;;;;;13.05;5.32;;;;;;;;;;5092661;28;20051;-66
2021/04/28 04:51:14;;;;;;;12.45;5.03;;;;;;;;;;5109914;28;20076;-67
2021/04/28 04:53:40;;;;;;;13.90;5.18;;;;;;;;;;5099603;28;20031;-66
2021/04/28 04:56:06;;;;;;;11.73;5.32;;;;;;;;;;5098029;28;20069;-68
2021/04/28 04:58:32;;;;;;;11.50;5.15;;;;;;;;;;5110736;28;20024;-67
2021/04/28 05:00:59;;;;;;;9.30;5.22;;;;;;;;;;5103668;28;20096;-67
2021/04/28 05:03:25;;;;;;;12.00;5.57;;;;;;;;;;5110836;28;20023;-66
2021/04/28 05:05:51;;;;;;;8.43;5.10;;;;;;;;;;5114922;28;20027;-66
2021/04/28 05:08:17;;;;;;;10.20;5.15;;;;;;;;;;5100455;28;20028;-66
2021/04/28 05:10:43;;;;;;;10.52;5.28;;;;;;;;;;5094837;28;20034;-67
2021/04/28 05:13:09;;;;;;;15.52;5.43;;;;;;;;;;5100298;28;20044;-66
2021/04/28 05:15:35;;;;;;;9.32;5.20;;;;;;;;;;5105236;28;20115;-67
2021/04/28 05:18:01;;;;;;;8.95;4.88;;;;;;;;;;5096134;28;20028;-67
2021/04/28 05:20:28;;;;;;;7.38;4.57;;;;;;;;;;5113956;28;20052;-67
2021/04/28 05:22:54;;;;;;;10.18;5.47;;;;;;;;;;5103629;28;20019;-67
2021/04/28 05:25:20;;;;;;;10.50;5.28;;;;;;;;;;5104510;28;20085;-67
2021/04/28 05:27:46;;;;;;;12.15;5.90;;;;;;;;;;5112870;28;20030;-67
2021/04/28 05:30:12;;;;;;;9.13;4.70;;;;;;;;;;5109197;28;20086;-67
2021/04/28 05:32:40;;;;;;;22.38;5.63;;;;;;;;;;5099850;28;20035;-67
2021/04/28 05:35:07;;;;;;;11.18;5.95;;;;;;;;;;5105645;28;20067;-67
2021/04/28 05:37:33;;;;;;;10.80;5.45;;;;;;;;;;5099846;28;20016;-67
2021/04/28 05:39:59;;;;;;;11.25;5.30;;;;;;;;;;5095794;28;20132;-68
2021/04/28 05:42:25;;;;;;;8.57;5.80;;;;;;;;;;5101532;28;20031;-67
2021/04/28 05:44:52;;;;;;;13.25;5.18;;;;;;;;;;5111352;28;20024;-66
2021/04/28 05:47:18;;;;;;;9.98;5.88;;;;;;;;;;5115429;28;20027;-67
2021/04/28 05:49:44;;;;;;;9.77;5.70;;;;;;;;;;5103509;28;20471;-67
2021/04/28 05:52:10;;;;;;;9.57;4.40;;;;;;;;;;5111475;28;20462;-67
2021/04/28 05:54:37;;;;;;;8.68;5.63;;;;;;;;;;5113242;28;20030;-68
2021/04/28 05:57:03;;;;;;;9.55;4.60;;;;;;;;;;5112999;28;20094;-69
2021/04/28 05:59:29;;;;;;;12.13;5.50;;;;;;;;;;5101513;28;20505;-67
2021/04/28 06:01:55;;;;;;;11.18;5.18;;;;;;;;;;5106154;28;20640;-71
2021/04/28 06:04:21;;;;;;;7.03;5.53;;;;;;;;;;5099775;28;20060;-68
2021/04/28 06:06:47;;;;;;;11.13;5.80;;;;;;;;;;5095749;28;20057;-67
2021/04/28 06:09:13;;;;;;;11.02;5.05;;;;;;;;;;5095962;28;20579;-66
2021/04/28 06:11:39;;;;;;;9.45;5.78;;;;;;;;;;5094561;28;20119;-66
2021/04/28 06:14:05;;;;;;;14.60;5.53;;;;;;;;;;5099099;28;20028;-66
2021/04/28 06:16:32;;;;;;;11.77;5.47;;;;;;;;;;5096004;28;20028;-67
2021/04/28 06:18:58;;;;;;;19.20;5.30;;;;;;;;;;5098475;28;20440;-67
2021/04/28 06:21:24;;;;;;;10.23;5.70;;;;;;;;;;5100712;28;20099;-66
2021/04/28 06:23:50;;;;;;;12.35;5.35;;;;;;;;;;5113915;28;20019;-65
2021/04/28 06:26:18;;;;;;;9.38;5.72;;;;;;;;;;5107135;28;20486;-66
2021/04/28 06:28:44;;;;;;;6.97;4.68;;;;;;;;;;5110871;28;20024;-66
2021/04/28 06:31:10;;;;;;;10.20;5.75;;;;;;;;;;5106836;28;20054;-67
2021/04/28 06:33:37;;;;;;;10.80;5.97;;;;;;;;;;5114095;28;20098;-66
2021/04/28 06:36:03;;;;;;;10.35;5.28;;;;;;;;;;5108499;28;20059;-68
2021/04/28 06:38:29;;;;;;;8.10;5.32;;;;;;;;;;5104906;28;20028;-68
2021/04/28 06:40:55;;;;;;;12.90;5.47;;;;;;;;;;5112594;28;20094;-68
2021/04/28 06:43:21;;;;;;;10.05;5.47;;;;;;;;;;5114287;28;20027;-67
2021/04/28 06:45:47;;;;;;;10.13;5.07;;;;;;;;;;5102901;28;20072;-68
2021/04/28 06:48:14;;;;;;;8.30;5.15;;;;;;;;;;5097825;28;20515;-68
2021/04/28 06:50:40;;;;;;;10.45;5.38;;;;;;;;;;5102971;28;20492;-65
2021/04/28 06:53:06;;;;;;;12.07;5.18;;;;;;;;;;5102527;28;20032;-66
2021/04/28 06:55:32;;;;;;;11.15;4.85;;;;;;;;;;5109142;28;20036;-66
2021/04/28 06:57:58;;;;;;;11.07;5.32;;;;;;;;;;5112155;28;20030;-66
2021/04/28 07:00:25;;;;;;;11.52;5.80;;;;;;;;;;5097401;28;20020;-66
2021/04/28 07:02:51;;;;;;;13.20;6.03;;;;;;;;;;5099565;28;20116;-67
2021/04/28 07:05:18;;;;;;;9.85;5.32;;;;;;;;;;5113785;28;20028;-66
2021/04/28 07:07:44;;;;;;;11.98;5.22;;;;;;;;;;5112404;28;20046;-67
2021/04/28 07:10:11;;;;;;;13.13;4.93;;;;;;;;;;5094912;28;20462;-67
2021/04/28 07:12:37;;;;;;;10.68;5.35;;;;;;;;;;5103817;28;20075;-67
2021/04/28 07:15:04;;;;;;;13.23;6.18;;;;;;;;;;5112350;28;20031;-66
2021/04/28 07:17:30;;;;;;;9.15;4.78;;;;;;;;;;5086862;28;20030;-66
2021/04/28 07:19:56;;;;;;;18.02;5.32;;;;;;;;;;5103859;28;20024;-66
2021/04/28 07:22:22;;;;;;;11.20;4.90;;;;;;;;;;5104692;28;20398;-66
2021/04/28 07:24:49;;;;;;;8.02;5.40;;;;;;;;;;5104187;28;20039;-66
2021/04/28 07:27:16;;;;;;;10.20;5.00;;;;;;;;;;5098314;28;20078;-66
2021/04/28 07:29:42;;;;;;;8.55;5.40;;;;;;;;;;5100413;28;20028;-66
2021/04/28 07:32:08;;;;;;;8.63;4.78;;;;;;;;;;5095126;28;20024;-66
2021/04/28 07:34:34;;;;;;;8.65;4.82;;;;;;;;;;5091899;28;20036;-67
2021/04/28 07:37:00;;;;;;;9.65;4.82;;;;;;;;;;5099241;28;20047;-66
2021/04/28 07:39:26;;;;;;;8.52;4.88;;;;;;;;;;5102440;28;20474;-67
2021/04/28 07:41:52;;;;;;;11.30;4.70;;;;;;;;;;5104877;28;20598;-66
2021/04/28 07:44:18;;;;;;;7.38;4.97;;;;;;;;;;5096703;28;20043;-67
2021/04/28 07:46:44;;;;;;;11.18;6.90;;;;;;;;;;5095630;28;20024;-66
2021/04/28 07:49:10;;;;;;;6.97;5.00;;;;;;;;;;5094367;28;20166;-66
2021/04/28 07:51:37;;;;;;;7.70;4.78;;;;;;;;;;5101114;28;20511;-67
2021/04/28 07:54:04;;;;;;;11.75;5.22;;;;;;;;;;5109330;28;20371;-66
2021/04/28 07:56:30;;;;;;;8.13;5.43;;;;;;;;;;5099118;28;20124;-65
2021/04/28 07:58:56;;;;;;;6.82;4.57;;;;;;;;;;5099956;28;20030;-66
2021/04/28 08:01:22;;;;;;;9.15;4.63;;;;;;;;;;5096119;28;20016;-65
2021/04/28 08:03:48;;;;;;;12.95;5.40;;;;;;;;;;5103836;28;20039;-67
2021/04/28 08:06:14;;;;;;;8.38;5.43;;;;;;;;;;5101969;28;20059;-66
2021/04/28 08:08:41;;;;;;;10.15;6.05;;;;;;;;;;5095699;28;20073;-65
2021/04/28 08:11:07;;;;;;;9.32;5.93;;;;;;;;;;5096478;28;20028;-67
2021/04/28 08:13:33;;;;;;;10.77;5.22;;;;;;;;;;5097660;28;20047;-67
2021/04/28 08:16:01;;;;;;;9.18;5.32;;;;;;;;;;5095654;28;20031;-66
2021/04/28 08:18:27;;;;;;;12.98;5.25;;;;;;;;;;5097202;28;20099;-66
2021/04/28 08:20:54;;;;;;;8.77;5.25;;;;;;;;;;5102204;28;20386;-67
2021/04/28 08:23:20;;;;;;;8.43;4.55;;;;;;;;;;5085522;28;20024;-67
2021/04/28 08:25:46;;;;;;;8.52;5.13;;;;;;;;;;5097430;28;20032;-66
2021/04/28 08:28:12;;;;;;;10.15;4.85;;;;;;;;;;5099915;28;20088;-66
2021/04/28 08:30:39;;;;;;;9.93;5.88;;;;;;;;;;5105728;28;20028;-67
2021/04/28 08:33:06;;;;;;;8.13;5.47;;;;;;;;;;5077158;28;20081;-67
2021/04/28 08:35:32;;;;;;;6.60;4.90;;;;;;;;;;5098951;28;20034;-66
2021/04/28 08:37:58;;;;;;;11.70;5.55;;;;;;;;;;5099938;28;20458;-66
2021/04/28 08:40:24;;;;;;;8.65;5.15;;;;;;;;;;5101001;28;20107;-66
2021/04/28 08:42:50;;;;;;;9.10;5.10;;;;;;;;;;5097714;28;20062;-67
2021/04/28 08:45:19;;;;;;;8.85;5.00;;;;;;;;;;5099867;28;20168;-65
2021/04/28 08:47:45;;;;;;;12.05;5.15;;;;;;;;;;5096249;28;20048;-66
2021/04/28 08:50:12;;;;;;;6.15;4.57;;;;;;;;;;5096342;28;20084;-67
2021/04/28 08:52:38;;;;;;;10.98;4.60;;;;;;;;;;5098330;28;20042;-66
2021/04/28 08:55:09;;;;;;;7.53;4.50;;;;;;;;;;5100557;28;20228;-67
2021/04/28 08:57:35;;;;;;;9.02;4.97;;;;;;;;;;5099268;28;20347;-67
2021/04/28 09:00:01;;;;;;;12.18;4.88;;;;;;;;;;5092310;28;20344;-66
2021/04/28 09:02:28;;;;;;;10.55;5.40;;;;;;;;;;5092537;28;20104;-66
2021/04/28 09:05:11;;;;;;;6.20;4.72;;;;;;;;;;5094190;28;20133;-67
2021/04/28 09:07:43;;;;;;;8.50;4.90;;;;;;;;;;5084351;28;20390;-65
2021/04/28 09:10:11;;;;;;;11.50;4.53;;;;;;;;;;5098312;28;20379;-65
2021/04/28 09:12:38;;;;;;;8.13;4.25;;;;;;;;;;5096301;28;20403;-63
2021/04/28 09:15:05;;;;;;;6.00;4.50;;;;;;;;;;5092595;28;20032;-66
2021/04/28 09:17:49;;;;;;;7.78;4.72;;;;;;;;;;5096525;28;20030;-65
2021/04/28 09:20:24;;;;;;;8.73;5.20;;;;;;;;;;5099672;28;20043;-66
2021/04/28 09:23:04;;;;;;;7.82;4.35;;;;;;;;;;5102037;28;20031;-66
2021/04/28 09:25:35;;;;;;;9.00;4.70;;;;;;;;;;5101035;28;20028;-66
2021/04/28 09:28:19;;;;;;;7.10;4.68;;;;;;;;;;5078460;28;20030;-66
2021/04/28 09:30:45;;;;;;;8.18;4.50;;;;;;;;;;5109682;28;20027;-67
2021/04/28 09:33:12;;;;;;;7.03;5.03;;;;;;;;;;5104040;28;20024;-67
2021/04/28 09:35:38;;;;;;;9.52;4.35;;;;;;;;;;5103702;28;20386;-67
2021/04/28 09:38:04;;;;;;;7.32;4.20;;;;;;;;;;5096348;28;20031;-66
2021/04/28 09:40:51;;;;;;;9.38;5.38;;;;;;;;;;5095102;28;20028;-65
2021/04/28 09:43:17;;;;;;;12.10;5.18;;;;;;;;;;5094785;28;20036;-65
2021/04/28 09:45:44;;;;;;;10.70;4.90;;;;;;;;;;5095121;28;20038;-66
2021/04/28 09:48:11;;;;;;;10.55;4.40;;;;;;;;;;5090253;28;20016;-67
2021/04/28 09:50:38;;;;;;;10.90;4.93;;;;;;;;;;5099959;28;20019;-66
2021/04/28 09:53:04;;;;;;;7.90;4.35;;;;;;;;;;5101492;28;20097;-66
2021/04/28 09:55:31;;;;;;;6.65;4.07;;;;;;;;;;5083921;28;20058;-65
2021/04/28 09:57:57;;;;;;;11.43;4.47;;;;;;;;;;5095731;28;20081;-67
2021/04/28 10:00:30;;;;;;;16.30;4.90;;;;;;;;;;5097974;28;20020;-67
2021/04/28 10:03:03;;;;;;;9.38;4.60;;;;;;;;;;5106008;28;20047;-66
2021/04/28 10:05:30;;;;;;;5.78;4.28;;;;;;;;;;5106426;28;20028;-67
2021/04/28 10:08:20;;;;;;;9.98;4.35;;;;;;;;;;5104788;28;20019;-66
2021/04/28 10:10:46;;;;;;;6.82;4.13;;;;;;;;;;5101472;28;20165;-66
2021/04/28 10:13:13;;;;;;;7.55;4.20;;;;;;;;;;5098340;28;20040;-65
2021/04/28 10:15:40;;;;;;;5.82;4.35;;;;;;;;;;5103910;28;20047;-66
2021/04/28 10:18:07;;;;;;;7.90;4.32;;;;;;;;;;5102754;28;20023;-65
2021/04/28 10:20:34;;;;;;;9.85;4.30;;;;;;;;;;5094989;28;20020;-65
2021/04/28 10:23:07;;;;;;;9.15;4.18;;;;;;;;;;5104329;28;20030;-65
2021/04/28 10:25:34;;;;;;;8.00;4.78;;;;;;;;;;5109158;28;20398;-64
2021/04/28 10:28:01;;;;;;;6.60;4.32;;;;;;;;;;5101331;28;20036;-66
2021/04/28 10:30:27;;;;;;;5.43;3.83;;;;;;;;;;5094263;28;20378;-68
2021/04/28 10:32:54;;;;;;;8.18;4.15;;;;;;;;;;5094756;28;20085;-68
2021/04/28 10:35:22;;;;;;;7.30;4.43;;;;;;;;;;5093295;28;20032;-66
2021/04/28 10:37:50;;;;;;;9.55;4.88;;;;;;;;;;5109371;28;20020;-67
2021/04/28 10:40:17;;;;;;;7.65;4.03;;;;;;;;;;5109512;28;20015;-66
2021/04/28 10:42:43;;;;;;;5.63;3.97;;;;;;;;;;5110411;28;20420;-66
2021/04/28 10:45:11;;;;;;;6.63;4.60;;;;;;;;;;5112597;28;20223;-66
2021/04/28 10:47:57;;;;;;;7.40;4.30;;;;;;;;;;5081063;28;20024;-67
2021/04/28 10:50:23;;;;;;;6.85;4.00;;;;;;;;;;5095496;28;20054;-67
2021/04/28 10:52:52;;;;;;;7.47;4.88;;;;;;;;;;5095591;28;20032;-65
2021/04/28 10:55:37;;;;;;;8.43;4.13;;;;;;;;;;5105338;28;20043;-66
2021/04/28 10:58:03;;;;;;;6.82;4.50;;;;;;;;;;5105317;28;20029;-67
2021/04/28 11:00:29;;;;;;;6.88;4.60;;;;;;;;;;5102700;28;20161;-67
2021/04/28 11:02:55;;;;;;;8.68;4.30;;;;;;;;;;5110294;28;20612;-66
2021/04/28 11:05:24;;;;;;;6.38;4.50;;;;;;;;;;5106694;28;20036;-67
2021/04/28 11:08:00;;;;;;;5.57;3.95;;;;;;;;;;5097108;28;20028;-68
2021/04/28 11:10:33;;;;;;;10.43;4.88;;;;;;;;;;5093686;28;20107;-67
2021/04/28 11:13:06;;;;;;;8.60;5.07;;;;;;;;;;5103546;28;20046;-67
2021/04/28 11:15:51;;;;;;;6.07;4.30;;;;;;;;;;5078101;28;20450;-68
2021/04/28 11:18:36;;;;;;;7.25;4.32;;;;;;;;;;5102375;28;20580;-67
2021/04/28 11:21:12;;;;;;;7.82;3.78;;;;;;;;;;5097667;28;20032;-68
2021/04/28 11:23:38;;;;;;;5.97;3.70;;;;;;;;;;5101005;28;20076;-67
2021/04/28 11:26:23;;;;;;;7.88;3.92;;;;;;;;;;5104304;28;20032;-66
2021/04/28 11:28:49;;;;;;;7.18;4.13;;;;;;;;;;5096296;28;20071;-67
2021/04/28 11:31:22;;;;;;;12.52;4.38;;;;;;;;;;5092829;28;20116;-68
2021/04/28 11:33:48;;;;;;;6.38;3.60;;;;;;;;;;5096844;28;22035;-66
2021/04/28 11:36:16;;;;;;;10.07;3.90;;;;;;;;;;5099514;28;20151;-67
2021/04/28 11:38:44;;;;;;;7.10;4.45;;;;;;;;;;5093193;28;20028;-66
2021/04/28 11:41:24;;;;;;;8.07;4.80;;;;;;;;;;5095526;28;20020;-67
2021/04/28 11:43:52;;;;;;;5.22;3.53;;;;;;;;;;5095445;28;20020;-67
2021/04/28 11:46:21;;;;;;;6.85;4.30;;;;;;;;;;5096104;28;20103;-68
2021/04/28 11:48:51;;;;;;;6.13;3.80;;;;;;;;;;5101975;28;20028;-68
2021/04/28 11:51:19;;;;;;;7.82;4.10;;;;;;;;;;5100479;28;20371;-69
2021/04/28 11:53:49;;;;;;;8.27;4.22;;;;;;;;;;5098552;28;20107;-68
2021/04/28 11:56:34;;;;;;;7.05;3.72;;;;;;;;;;5101190;28;20115;-68
2021/04/28 11:59:01;;;;;;;14.48;5.25;;;;;;;;;;5101672;28;20019;-69
2021/04/28 12:01:28;;;;;;;7.15;3.75;;;;;;;;;;5095117;28;20051;-68
2021/04/28 12:03:58;;;;;;;8.18;3.60;;;;;;;;;;5097201;28;20028;-67
2021/04/28 12:06:28;;;;;;;6.20;4.05;;;;;;;;;;5095030;28;20028;-68
2021/04/28 12:09:20;;;;;;;6.00;3.63;;;;;;;;;;5103702;28;20453;-68
2021/04/28 12:11:48;;;;;;;8.27;3.70;;;;;;;;;;5094835;28;20035;-67
2021/04/28 12:14:23;;;;;;;6.25;3.50;;;;;;;;;;5091199;28;20111;-67
2021/04/28 12:16:56;;;;;;;4.20;3.72;;;;;;;;;;5105847;28;20037;-68
2021/04/28 12:19:23;;;;;;;11.95;4.15;;;;;;;;;;5109963;28;20015;-68
2021/04/28 12:22:03;;;;;;;6.53;3.50;;;;;;;;;;5101244;28;20464;-68
2021/04/28 12:24:31;;;;;;;5.65;3.25;;;;;;;;;;5104499;28;20035;-66
2021/04/28 12:27:02;;;;;;;6.82;3.80;;;;;;;;;;5096041;28;20108;-67
2021/04/28 12:29:28;;;;;;;6.32;4.10;;;;;;;;;;5097941;28;20034;-68
2021/04/28 12:31:55;;;;;;;7.53;4.35;;;;;;;;;;5099147;28;20020;-68
2021/04/28 12:34:21;;;;;;;9.63;3.92;;;;;;;;;;5098807;28;20035;-69
2021/04/28 12:36:47;;;;;;;9.23;3.70;;;;;;;;;;5076199;28;20071;-67
2021/04/28 12:39:26;;;;;;;6.57;3.80;;;;;;;;;;5100977;28;20416;-68
2021/04/28 12:41:52;;;;;;;8.02;3.53;;;;;;;;;;5099944;28;20031;-65
2021/04/28 12:44:19;;;;;;;7.32;3.53;;;;;;;;;;5078377;28;20469;-68
2021/04/28 12:46:45;;;;;;;5.40;3.63;;;;;;;;;;5110775;28;20103;-69
2021/04/28 12:49:12;;;;;;;8.20;3.65;;;;;;;;;;5103230;28;20027;-70
2021/04/28 12:51:45;;;;;;;8.00;4.05;;;;;;;;;;5109307;28;20023;-67
2021/04/28 12:54:12;;;;;;;5.80;3.97;;;;;;;;;;5095875;28;20031;-68
2021/04/28 12:56:45;;;;;;;7.80;3.70;;;;;;;;;;5095402;28;20039;-68
2021/04/28 12:59:15;;;;;;;8.35;4.72;;;;;;;;;;5097509;28;20035;-69
2021/04/28 13:01:41;;;;;;;4.18;3.40;;;;;;;;;;5104428;28;20095;-69
2021/04/28 13:04:17;;;;;;;6.93;3.38;;;;;;;;;;5093644;28;20023;-67
2021/04/28 13:06:43;;;;;;;4.65;2.95;;;;;;;;;;5108320;28;20643;-68
2021/04/28 13:09:14;;;;;;;9.57;4.18;;;;;;;;;;5099611;28;20035;-68
2021/04/28 13:11:44;;;;;;;8.55;3.72;;;;;;;;;;5085551;28;20032;-68
2021/04/28 13:14:16;;;;;;;10.57;4.90;;;;;;;;;;5078807;28;20024;-69
2021/04/28 13:16:53;;;;;;;5.72;3.30;;;;;;;;;;5082383;28;20068;-69
2021/04/28 13:19:28;;;;;;;6.57;3.65;;;;;;;;;;5081019;28;20028;-70
2021/04/28 13:21:58;;;;;;;8.77;4.80;;;;;;;;;;5086792;28;20486;-66
2021/04/28 13:24:29;;;;;;;7.03;3.20;;;;;;;;;;5072862;28;20479;-69
2021/04/28 13:26:59;;;;;;;4.97;3.47;;;;;;;;;;5085821;28;20020;-68
2021/04/28 13:29:25;;;;;;;5.15;3.33;;;;;;;;;;5075828;28;20040;-70
2021/04/28 13:31:51;;;;;;;6.05;3.85;;;;;;;;;;5079582;28;20040;-67
2021/04/28 13:34:25;;;;;;;5.85;3.17;;;;;;;;;;5082332;28;20067;-68
2021/04/28 13:36:51;;;;;;;6.10;3.40;;;;;;;;;;5076326;28;20036;-70
2021/04/28 13:39:28;;;;;;;4.60;3.15;;;;;;;;;;5082229;28;20032;-69
2021/04/28 13:41:57;;;;;;;5.47;3.13;;;;;;;;;;5079883;28;20147;-67
2021/04/28 13:44:24;;;;;;;6.45;3.00;;;;;;;;;;5083933;28;20020;-66
2021/04/28 13:46:55;;;;;;;5.70;3.20;;;;;;;;;;5079118;28;20029;-71
2021/04/28 13:49:21;;;;;;;3.47;2.83;;;;;;;;;;5076426;28;20482;-69
2021/04/28 13:51:52;;;;;;;6.22;3.88;;;;;;;;;;5076248;28;20035;-65
2021/04/28 13:54:18;;;;;;;5.93;2.90;;;;;;;;;;5082786;28;20493;-67
2021/04/28 13:56:44;;;;;;;4.45;3.10;;;;;;;;;;5086469;28;20028;-68
2021/04/28 13:59:10;;;;;;;6.47;3.05;;;;;;;;;;5073920;28;20103;-70
2021/04/28 14:01:36;;;;;;;5.53;3.53;;;;;;;;;;5076962;28;20028;-68
2021/04/28 14:04:02;;;;;;;3.63;2.65;;;;;;;;;;5075035;28;20446;-69
2021/04/28 14:06:28;;;;;;;6.68;3.05;;;;;;;;;;5078763;28;20052;-68
2021/04/28 14:08:54;;;;;;;5.40;3.55;;;;;;;;;;5075579;28;20028;-68
2021/04/28 14:11:22;;;;;;;4.15;2.92;;;;;;;;;;5082002;28;20092;-68
2021/04/28 14:13:48;;;;;;;6.47;2.95;;;;;;;;;;5096858;28;20390;-69
2021/04/28 14:16:14;;;;;;;5.32;3.45;;;;;;;;;;5100843;28;20075;-69
2021/04/28 14:18:40;;;;;;;5.15;3.53;;;;;;;;;;5097243;28;20020;-68
2021/04/28 14:21:06;;;;;;;5.47;2.80;;;;;;;;;;5097126;28;20030;-70
2021/04/28 14:23:32;;;;;;;5.25;2.63;;;;;;;;;;5095176;28;20055;-69
2021/04/28 14:25:58;;;;;;;5.05;2.80;;;;;;;;;;5098003;28;20121;-68
2021/04/28 14:28:24;;;;;;;4.75;2.83;;;;;;;;;;5104136;28;20318;-69
2021/04/28 14:30:50;;;;;;;3.97;2.67;;;;;;;;;;5095589;28;20031;-68
2021/04/28 14:33:17;;;;;;;4.30;2.63;;;;;;;;;;5110025;28;20110;-69
2021/04/28 14:35:43;;;;;;;2.97;2.60;;;;;;;;;;5108129;28;20050;-68
2021/04/28 14:38:09;;;;;;;3.60;2.45;;;;;;;;;;5096987;28;20088;-69
2021/04/28 14:40:35;;;;;;;5.35;2.85;;;;;;;;;;5103091;28;20027;-67
2021/04/28 14:43:01;;;;;;;5.32;2.67;;;;;;;;;;5101556;28;20024;-69